sensor_id;sensor_type;location;lat;lon;timestamp;P1;durP1;ratioP1;P2;durP2;ratioP2
11171;SDS011;5642;50.830;12.082;2022-12-08T00:01:33;1.63;;;1.52;;
11171;SDS011;5642;50.830;12.082;2022-12-08T00:04:00;2.20;;;1.58;;
11171;SDS011;5642;50.830;12.082;2022-12-08T00:06:30;1.90;;;1.70;;
11171;SDS011;5642;50.830;12.082;2022-12-08T00:14:19;1.80;;;1.70;;
11171;SDS011;5642;50.830;12.082;2022-12-08T00:16:48;1.70;;;1.60;;
11171;SDS011;5642;50.830;12.082;2022-12-08T00:19:14;1.95;;;1.75;;
11171;SDS011;5642;50.830;12.082;2022-12-08T00:21:43;1.80;;;1.67;;
11171;SDS011;5642;50.830;12.082;2022-12-08T00:24:09;1.65;;;1.55;;
11171;SDS011;5642;50.830;12.082;2022-12-08T00:26:36;1.70;;;1.60;;
11171;SDS011;5642;50.830;12.082;2022-12-08T00:29:03;1.73;;;1.63;;
11171;SDS011;5642;50.830;12.082;2022-12-08T00:31:31;2.13;;;1.70;;
11171;SDS011;5642;50.830;12.082;2022-12-08T00:34:00;1.73;;;1.63;;
11171;SDS011;5642;50.830;12.082;2022-12-08T00:36:27;2.00;;;1.80;;
11171;SDS011;5642;50.830;12.082;2022-12-08T00:38:57;2.25;;;2.05;;
11171;SDS011;5642;50.830;12.082;2022-12-08T00:41:27;1.95;;;1.85;;
11171;SDS011;5642;50.830;12.082;2022-12-08T00:44:13;1.80;;;1.70;;
11171;SDS011;5642;50.830;12.082;2022-12-08T00:46:44;1.80;;;1.70;;
11171;SDS011;5642;50.830;12.082;2022-12-08T00:49:12;2.00;;;1.90;;
11171;SDS011;5642;50.830;12.082;2022-12-08T00:51:39;2.15;;;1.95;;
11171;SDS011;5642;50.830;12.082;2022-12-08T00:54:05;2.00;;;1.63;;
11171;SDS011;5642;50.830;12.082;2022-12-08T00:56:45;2.00;;;1.90;;
11171;SDS011;5642;50.830;12.082;2022-12-08T00:59:12;1.88;;;1.77;;
11171;SDS011;5642;50.830;12.082;2022-12-08T01:01:43;2.15;;;1.95;;
11171;SDS011;5642;50.830;12.082;2022-12-08T01:04:12;2.20;;;1.97;;
11171;SDS011;5642;50.830;12.082;2022-12-08T01:06:44;3.05;;;2.20;;
11171;SDS011;5642;50.830;12.082;2022-12-08T01:09:18;2.28;;;1.80;;
11171;SDS011;5642;50.830;12.082;2022-12-08T01:11:45;1.85;;;1.75;;
11171;SDS011;5642;50.830;12.082;2022-12-08T01:14:12;1.98;;;1.88;;
11171;SDS011;5642;50.830;12.082;2022-12-08T01:16:48;1.90;;;1.80;;
11171;SDS011;5642;50.830;12.082;2022-12-08T01:19:15;1.90;;;1.80;;
11171;SDS011;5642;50.830;12.082;2022-12-08T01:21:55;2.15;;;1.98;;
11171;SDS011;5642;50.830;12.082;2022-12-08T01:24:21;2.30;;;2.10;;
11171;SDS011;5642;50.830;12.082;2022-12-08T01:26:50;2.20;;;2.00;;
11171;SDS011;5642;50.830;12.082;2022-12-08T01:29:22;2.60;;;2.20;;
11171;SDS011;5642;50.830;12.082;2022-12-08T01:31:49;2.83;;;2.00;;
11171;SDS011;5642;50.830;12.082;2022-12-08T01:34:24;2.60;;;2.10;;
11171;SDS011;5642;50.830;12.082;2022-12-08T01:36:56;2.47;;;1.90;;
11171;SDS011;5642;50.830;12.082;2022-12-08T01:39:26;2.03;;;1.92;;
11171;SDS011;5642;50.830;12.082;2022-12-08T01:41:58;2.15;;;1.95;;
11171;SDS011;5642;50.830;12.082;2022-12-08T01:46:54;2.20;;;2.00;;
11171;SDS011;5642;50.830;12.082;2022-12-08T01:49:24;2.10;;;1.90;;
11171;SDS011;5642;50.830;12.082;2022-12-08T01:52:00;1.98;;;1.88;;
11171;SDS011;5642;50.830;12.082;2022-12-08T01:54:34;2.00;;;1.90;;
11171;SDS011;5642;50.830;12.082;2022-12-08T01:57:10;2.13;;;1.92;;
11171;SDS011;5642;50.830;12.082;2022-12-08T01:59:46;2.25;;;2.00;;
11171;SDS011;5642;50.830;12.082;2022-12-08T02:02:20;2.13;;;1.75;;
11171;SDS011;5642;50.830;12.082;2022-12-08T02:04:52;2.00;;;1.85;;
11171;SDS011;5642;50.830;12.082;2022-12-08T02:07:27;2.17;;;1.98;;
11171;SDS011;5642;50.830;12.082;2022-12-08T02:10:02;1.98;;;1.88;;
11171;SDS011;5642;50.830;12.082;2022-12-08T02:12:34;2.20;;;2.00;;
11171;SDS011;5642;50.830;12.082;2022-12-08T02:15:04;1.98;;;1.85;;
11171;SDS011;5642;50.830;12.082;2022-12-08T02:20:55;1.80;;;1.70;;
11171;SDS011;5642;50.830;12.082;2022-12-08T02:24:19;2.00;;;1.80;;
11171;SDS011;5642;50.830;12.082;2022-12-08T02:27:21;2.28;;;2.08;;
11171;SDS011;5642;50.830;12.082;2022-12-08T02:30:17;2.10;;;1.92;;
11171;SDS011;5642;50.830;12.082;2022-12-08T02:45:38;2.30;;;2.10;;
11171;SDS011;5642;50.830;12.082;2022-12-08T02:48:29;2.17;;;1.98;;
11171;SDS011;5642;50.830;12.082;2022-12-08T02:50:59;1.95;;;1.85;;
11171;SDS011;5642;50.830;12.082;2022-12-08T02:53:30;2.35;;;2.15;;
11171;SDS011;5642;50.830;12.082;2022-12-08T02:56:03;2.13;;;2.00;;
11171;SDS011;5642;50.830;12.082;2022-12-08T03:09:55;2.17;;;2.05;;
11171;SDS011;5642;50.830;12.082;2022-12-08T03:12:36;1.90;;;1.80;;
11171;SDS011;5642;50.830;12.082;2022-12-08T03:15:39;1.90;;;1.80;;
11171;SDS011;5642;50.830;12.082;2022-12-08T03:18:08;2.20;;;2.05;;
11171;SDS011;5642;50.830;12.082;2022-12-08T03:20:38;1.83;;;1.73;;
11171;SDS011;5642;50.830;12.082;2022-12-08T03:23:07;2.13;;;2.00;;
11171;SDS011;5642;50.830;12.082;2022-12-08T03:25:37;2.30;;;2.10;;
11171;SDS011;5642;50.830;12.082;2022-12-08T03:28:11;2.45;;;2.25;;
11171;SDS011;5642;50.830;12.082;2022-12-08T03:30:39;2.28;;;2.08;;
11171;SDS011;5642;50.830;12.082;2022-12-08T03:33:14;2.38;;;1.98;;
11171;SDS011;5642;50.830;12.082;2022-12-08T03:35:48;2.17;;;2.08;;
11171;SDS011;5642;50.830;12.082;2022-12-08T03:38:16;2.00;;;1.90;;
11171;SDS011;5642;50.830;12.082;2022-12-08T03:40:43;2.28;;;2.08;;
11171;SDS011;5642;50.830;12.082;2022-12-08T03:43:32;1.83;;;1.73;;
11171;SDS011;5642;50.830;12.082;2022-12-08T03:46:01;2.30;;;2.10;;
11171;SDS011;5642;50.830;12.082;2022-12-08T03:48:28;1.88;;;1.77;;
11171;SDS011;5642;50.830;12.082;2022-12-08T03:50:55;2.47;;;2.30;;
11171;SDS011;5642;50.830;12.082;2022-12-08T03:53:21;2.08;;;1.98;;
11171;SDS011;5642;50.830;12.082;2022-12-08T03:55:47;2.20;;;2.00;;
11171;SDS011;5642;50.830;12.082;2022-12-08T03:58:13;2.38;;;2.17;;
11171;SDS011;5642;50.830;12.082;2022-12-08T04:00:40;1.98;;;1.88;;
11171;SDS011;5642;50.830;12.082;2022-12-08T04:03:06;2.08;;;1.95;;
11171;SDS011;5642;50.830;12.082;2022-12-08T04:05:32;2.05;;;1.95;;
11171;SDS011;5642;50.830;12.082;2022-12-08T04:07:58;2.28;;;2.08;;
11171;SDS011;5642;50.830;12.082;2022-12-08T04:10:25;1.80;;;1.70;;
11171;SDS011;5642;50.830;12.082;2022-12-08T04:12:51;1.90;;;1.80;;
11171;SDS011;5642;50.830;12.082;2022-12-08T04:15:18;2.03;;;1.92;;
11171;SDS011;5642;50.830;12.082;2022-12-08T04:17:44;1.95;;;1.85;;
11171;SDS011;5642;50.830;12.082;2022-12-08T04:20:10;1.90;;;1.80;;
11171;SDS011;5642;50.830;12.082;2022-12-08T04:22:37;1.80;;;1.70;;
11171;SDS011;5642;50.830;12.082;2022-12-08T04:25:07;1.85;;;1.75;;
11171;SDS011;5642;50.830;12.082;2022-12-08T04:27:34;1.75;;;1.65;;
11171;SDS011;5642;50.830;12.082;2022-12-08T04:30:00;1.70;;;1.60;;
11171;SDS011;5642;50.830;12.082;2022-12-08T04:32:26;2.00;;;1.90;;
11171;SDS011;5642;50.830;12.082;2022-12-08T04:34:57;1.80;;;1.70;;
11171;SDS011;5642;50.830;12.082;2022-12-08T04:37:27;2.20;;;2.00;;
11171;SDS011;5642;50.830;12.082;2022-12-08T04:39:53;2.00;;;1.90;;
11171;SDS011;5642;50.830;12.082;2022-12-08T04:42:22;2.00;;;1.75;;
11171;SDS011;5642;50.830;12.082;2022-12-08T04:44:52;1.98;;;1.88;;
11171;SDS011;5642;50.830;12.082;2022-12-08T04:47:19;2.03;;;1.83;;
11171;SDS011;5642;50.830;12.082;2022-12-08T04:49:55;2.20;;;2.00;;
11171;SDS011;5642;50.830;12.082;2022-12-08T04:52:21;2.20;;;2.00;;
11171;SDS011;5642;50.830;12.082;2022-12-08T04:54:50;1.90;;;1.80;;
11171;SDS011;5642;50.830;12.082;2022-12-08T04:57:16;1.77;;;1.67;;
11171;SDS011;5642;50.830;12.082;2022-12-08T04:59:43;1.92;;;1.83;;
11171;SDS011;5642;50.830;12.082;2022-12-08T05:02:11;2.13;;;2.03;;
11171;SDS011;5642;50.830;12.082;2022-12-08T05:04:37;1.92;;;1.83;;
11171;SDS011;5642;50.830;12.082;2022-12-08T05:07:05;2.00;;;1.80;;
11171;SDS011;5642;50.830;12.082;2022-12-08T05:09:33;1.90;;;1.80;;
11171;SDS011;5642;50.830;12.082;2022-12-08T05:12:00;1.67;;;1.58;;
11171;SDS011;5642;50.830;12.082;2022-12-08T05:14:29;1.88;;;1.77;;
11171;SDS011;5642;50.830;12.082;2022-12-08T05:16:56;1.90;;;1.80;;
11171;SDS011;5642;50.830;12.082;2022-12-08T05:19:22;1.73;;;1.63;;
11171;SDS011;5642;50.830;12.082;2022-12-08T05:21:48;1.60;;;1.50;;
11171;SDS011;5642;50.830;12.082;2022-12-08T05:24:17;1.73;;;1.63;;
11171;SDS011;5642;50.830;12.082;2022-12-08T05:26:44;1.77;;;1.67;;
11171;SDS011;5642;50.830;12.082;2022-12-08T05:29:10;1.45;;;1.35;;
11171;SDS011;5642;50.830;12.082;2022-12-08T05:31:39;1.85;;;1.63;;
11171;SDS011;5642;50.830;12.082;2022-12-08T05:34:11;1.88;;;1.77;;
11171;SDS011;5642;50.830;12.082;2022-12-08T05:36:38;2.03;;;1.90;;
11171;SDS011;5642;50.830;12.082;2022-12-08T05:39:11;1.90;;;1.80;;
11171;SDS011;5642;50.830;12.082;2022-12-08T05:41:39;1.85;;;1.75;;
11171;SDS011;5642;50.830;12.082;2022-12-08T05:44:12;1.83;;;1.73;;
11171;SDS011;5642;50.830;12.082;2022-12-08T05:46:42;1.55;;;1.48;;
11171;SDS011;5642;50.830;12.082;2022-12-08T05:49:09;1.80;;;1.70;;
11171;SDS011;5642;50.830;12.082;2022-12-08T05:51:35;1.60;;;1.50;;
11171;SDS011;5642;50.830;12.082;2022-12-08T05:54:05;1.67;;;1.58;;
11171;SDS011;5642;50.830;12.082;2022-12-08T05:56:31;1.88;;;1.77;;
11171;SDS011;5642;50.830;12.082;2022-12-08T05:58:58;1.80;;;1.70;;
11171;SDS011;5642;50.830;12.082;2022-12-08T06:01:28;1.70;;;1.58;;
11171;SDS011;5642;50.830;12.082;2022-12-08T06:03:57;1.75;;;1.65;;
11171;SDS011;5642;50.830;12.082;2022-12-08T06:06:38;1.63;;;1.52;;
11171;SDS011;5642;50.830;12.082;2022-12-08T06:09:09;1.70;;;1.60;;
11171;SDS011;5642;50.830;12.082;2022-12-08T06:11:42;1.60;;;1.50;;
11171;SDS011;5642;50.830;12.082;2022-12-08T06:14:15;1.60;;;1.50;;
11171;SDS011;5642;50.830;12.082;2022-12-08T06:16:41;1.63;;;1.52;;
11171;SDS011;5642;50.830;12.082;2022-12-08T06:19:07;1.70;;;1.60;;
11171;SDS011;5642;50.830;12.082;2022-12-08T06:21:40;1.52;;;1.42;;
11171;SDS011;5642;50.830;12.082;2022-12-08T06:24:07;1.50;;;1.42;;
11171;SDS011;5642;50.830;12.082;2022-12-08T06:26:36;1.60;;;1.50;;
11171;SDS011;5642;50.830;12.082;2022-12-08T06:29:04;1.52;;;1.42;;
11171;SDS011;5642;50.830;12.082;2022-12-08T06:31:31;1.52;;;1.40;;
11171;SDS011;5642;50.830;12.082;2022-12-08T06:34:02;1.45;;;1.38;;
11171;SDS011;5642;50.830;12.082;2022-12-08T06:36:31;1.60;;;1.50;;
11171;SDS011;5642;50.830;12.082;2022-12-08T06:39:00;1.55;;;1.45;;
11171;SDS011;5642;50.830;12.082;2022-12-08T06:41:26;1.67;;;1.58;;
11171;SDS011;5642;50.830;12.082;2022-12-08T06:43:55;1.48;;;1.38;;
11171;SDS011;5642;50.830;12.082;2022-12-08T06:46:23;1.52;;;1.42;;
11171;SDS011;5642;50.830;12.082;2022-12-08T06:48:49;1.30;;;1.30;;
11171;SDS011;5642;50.830;12.082;2022-12-08T06:51:20;1.65;;;1.55;;
11171;SDS011;5642;50.830;12.082;2022-12-08T06:53:51;1.50;;;1.40;;
11171;SDS011;5642;50.830;12.082;2022-12-08T06:56:18;1.88;;;1.77;;
11171;SDS011;5642;50.830;12.082;2022-12-08T06:58:49;1.60;;;1.50;;
11171;SDS011;5642;50.830;12.082;2022-12-08T07:01:16;1.70;;;1.60;;
11171;SDS011;5642;50.830;12.082;2022-12-08T07:03:42;1.63;;;1.52;;
11171;SDS011;5642;50.830;12.082;2022-12-08T07:06:20;1.60;;;1.50;;
11171;SDS011;5642;50.830;12.082;2022-12-08T07:08:48;1.60;;;1.50;;
11171;SDS011;5642;50.830;12.082;2022-12-08T07:11:16;1.70;;;1.60;;
11171;SDS011;5642;50.830;12.082;2022-12-08T07:13:46;1.40;;;1.30;;
11171;SDS011;5642;50.830;12.082;2022-12-08T07:16:13;1.63;;;1.52;;
11171;SDS011;5642;50.830;12.082;2022-12-08T07:18:40;1.70;;;1.60;;
11171;SDS011;5642;50.830;12.082;2022-12-08T07:21:10;1.70;;;1.60;;
11171;SDS011;5642;50.830;12.082;2022-12-08T07:23:40;1.67;;;1.58;;
11171;SDS011;5642;50.830;12.082;2022-12-08T07:26:10;1.75;;;1.65;;
11171;SDS011;5642;50.830;12.082;2022-12-08T07:28:42;1.63;;;1.52;;
11171;SDS011;5642;50.830;12.082;2022-12-08T07:31:17;1.80;;;1.70;;
11171;SDS011;5642;50.830;12.082;2022-12-08T07:33:50;1.77;;;1.67;;
11171;SDS011;5642;50.830;12.082;2022-12-08T07:36:18;2.33;;;1.73;;
11171;SDS011;5642;50.830;12.082;2022-12-08T07:38:44;1.85;;;1.75;;
11171;SDS011;5642;50.830;12.082;2022-12-08T07:41:28;2.30;;;2.10;;
11171;SDS011;5642;50.830;12.082;2022-12-08T07:44:11;2.20;;;2.00;;
11171;SDS011;5642;50.830;12.082;2022-12-08T07:46:43;2.28;;;2.15;;
11171;SDS011;5642;50.830;12.082;2022-12-08T07:49:10;2.72;;;2.53;;
11171;SDS011;5642;50.830;12.082;2022-12-08T07:51:38;2.65;;;2.45;;
11171;SDS011;5642;50.830;12.082;2022-12-08T07:54:05;3.15;;;2.85;;
11171;SDS011;5642;50.830;12.082;2022-12-08T07:56:39;2.95;;;2.67;;
11171;SDS011;5642;50.830;12.082;2022-12-08T07:59:05;3.15;;;2.95;;
11171;SDS011;5642;50.830;12.082;2022-12-08T08:01:34;3.10;;;2.90;;
11171;SDS011;5642;50.830;12.082;2022-12-08T08:04:02;3.40;;;3.10;;
11171;SDS011;5642;50.830;12.082;2022-12-08T08:06:30;3.40;;;3.13;;
11171;SDS011;5642;50.830;12.082;2022-12-08T08:08:57;3.05;;;2.85;;
11171;SDS011;5642;50.830;12.082;2022-12-08T08:11:24;3.65;;;3.35;;
11171;SDS011;5642;50.830;12.082;2022-12-08T08:13:50;3.15;;;2.95;;
11171;SDS011;5642;50.830;12.082;2022-12-08T08:16:19;3.25;;;2.95;;
11171;SDS011;5642;50.830;12.082;2022-12-08T08:18:48;3.60;;;3.30;;
11171;SDS011;5642;50.830;12.082;2022-12-08T08:21:19;3.65;;;3.35;;
11171;SDS011;5642;50.830;12.082;2022-12-08T08:23:46;3.92;;;3.58;;
11171;SDS011;5642;50.830;12.082;2022-12-08T08:26:13;3.55;;;3.25;;
11171;SDS011;5642;50.830;12.082;2022-12-08T08:28:43;3.53;;;3.22;;
11171;SDS011;5642;50.830;12.082;2022-12-08T08:31:10;3.95;;;3.65;;
11171;SDS011;5642;50.830;12.082;2022-12-08T08:33:46;3.33;;;3.03;;
11171;SDS011;5642;50.830;12.082;2022-12-08T08:36:14;3.40;;;3.13;;
11171;SDS011;5642;50.830;12.082;2022-12-08T08:38:44;3.85;;;3.55;;
11171;SDS011;5642;50.830;12.082;2022-12-08T08:41:18;3.45;;;3.15;;
11171;SDS011;5642;50.830;12.082;2022-12-08T08:43:46;4.30;;;3.90;;
11171;SDS011;5642;50.830;12.082;2022-12-08T08:46:12;3.53;;;3.22;;
11171;SDS011;5642;50.830;12.082;2022-12-08T08:48:43;3.88;;;3.47;;
11171;SDS011;5642;50.830;12.082;2022-12-08T08:51:12;3.70;;;3.40;;
11171;SDS011;5642;50.830;12.082;2022-12-08T08:53:41;3.42;;;3.13;;
11171;SDS011;5642;50.830;12.082;2022-12-08T08:56:11;3.22;;;3.03;;
11171;SDS011;5642;50.830;12.082;2022-12-08T08:58:42;3.13;;;2.83;;
11171;SDS011;5642;50.830;12.082;2022-12-08T09:01:12;3.22;;;2.92;;
11171;SDS011;5642;50.830;12.082;2022-12-08T09:03:43;3.50;;;3.20;;
11171;SDS011;5642;50.830;12.082;2022-12-08T09:06:13;2.88;;;2.65;;
11171;SDS011;5642;50.830;12.082;2022-12-08T09:08:40;3.28;;;3.03;;
11171;SDS011;5642;50.830;12.082;2022-12-08T09:11:10;3.25;;;3.03;;
11171;SDS011;5642;50.830;12.082;2022-12-08T09:13:37;4.05;;;3.28;;
11171;SDS011;5642;50.830;12.082;2022-12-08T09:16:04;3.40;;;3.10;;
11171;SDS011;5642;50.830;12.082;2022-12-08T09:18:32;3.25;;;2.95;;
11171;SDS011;5642;50.830;12.082;2022-12-08T09:21:04;3.20;;;3.00;;
11171;SDS011;5642;50.830;12.082;2022-12-08T09:23:38;3.33;;;3.03;;
11171;SDS011;5642;50.830;12.082;2022-12-08T09:26:07;3.50;;;3.20;;
11171;SDS011;5642;50.830;12.082;2022-12-08T09:28:34;3.30;;;2.97;;
11171;SDS011;5642;50.830;12.082;2022-12-08T09:31:00;3.13;;;2.83;;
11171;SDS011;5642;50.830;12.082;2022-12-08T09:33:27;3.50;;;3.20;;
11171;SDS011;5642;50.830;12.082;2022-12-08T09:36:00;3.33;;;3.03;;
11171;SDS011;5642;50.830;12.082;2022-12-08T09:38:27;2.90;;;2.70;;
11171;SDS011;5642;50.830;12.082;2022-12-08T09:40:53;2.97;;;2.75;;
11171;SDS011;5642;50.830;12.082;2022-12-08T09:43:40;3.35;;;3.08;;
11171;SDS011;5642;50.830;12.082;2022-12-08T09:46:18;2.72;;;2.53;;
11171;SDS011;5642;50.830;12.082;2022-12-08T09:48:51;3.40;;;3.10;;
11171;SDS011;5642;50.830;12.082;2022-12-08T09:51:26;3.00;;;2.80;;
11171;SDS011;5642;50.830;12.082;2022-12-08T09:54:04;2.95;;;2.75;;
11171;SDS011;5642;50.830;12.082;2022-12-08T09:56:42;2.60;;;2.40;;
11171;SDS011;5642;50.830;12.082;2022-12-08T09:59:22;3.33;;;3.03;;
11171;SDS011;5642;50.830;12.082;2022-12-08T10:01:59;2.95;;;2.75;;
11171;SDS011;5642;50.830;12.082;2022-12-08T10:04:28;3.10;;;2.90;;
11171;SDS011;5642;50.830;12.082;2022-12-08T10:09:59;3.08;;;2.83;;
11171;SDS011;5642;50.830;12.082;2022-12-08T10:12:41;2.95;;;2.75;;
11171;SDS011;5642;50.830;12.082;2022-12-08T10:15:43;3.22;;;2.92;;
11171;SDS011;5642;50.830;12.082;2022-12-08T10:18:36;2.70;;;2.50;;
11171;SDS011;5642;50.830;12.082;2022-12-08T10:21:11;3.03;;;2.83;;
11171;SDS011;5642;50.830;12.082;2022-12-08T10:23:42;2.83;;;2.63;;
11171;SDS011;5642;50.830;12.082;2022-12-08T10:26:17;2.95;;;2.75;;
11171;SDS011;5642;50.830;12.082;2022-12-08T10:28:55;2.85;;;2.65;;
11171;SDS011;5642;50.830;12.082;2022-12-08T10:31:26;2.55;;;2.35;;
11171;SDS011;5642;50.830;12.082;2022-12-08T10:34:29;2.88;;;2.67;;
11171;SDS011;5642;50.830;12.082;2022-12-08T10:36:57;2.83;;;2.63;;
11171;SDS011;5642;50.830;12.082;2022-12-08T10:39:38;2.78;;;2.58;;
11171;SDS011;5642;50.830;12.082;2022-12-08T10:47:25;2.70;;;2.50;;
11171;SDS011;5642;50.830;12.082;2022-12-08T11:01:01;2.60;;;2.40;;
11171;SDS011;5642;50.830;12.082;2022-12-08T11:03:37;2.50;;;2.30;;
11171;SDS011;5642;50.830;12.082;2022-12-08T11:09:02;2.72;;;2.53;;
11171;SDS011;5642;50.830;12.082;2022-12-08T11:11:57;2.17;;;2.08;;
11171;SDS011;5642;50.830;12.082;2022-12-08T11:14:44;2.88;;;2.67;;
11171;SDS011;5642;50.830;12.082;2022-12-08T11:17:15;2.30;;;2.20;;
11171;SDS011;5642;50.830;12.082;2022-12-08T11:19:59;2.63;;;2.42;;
11171;SDS011;5642;50.830;12.082;2022-12-08T11:27:34;2.50;;;2.30;;
11171;SDS011;5642;50.830;12.082;2022-12-08T11:30:05;2.20;;;2.00;;
11171;SDS011;5642;50.830;12.082;2022-12-08T11:33:00;2.17;;;1.98;;
11171;SDS011;5642;50.830;12.082;2022-12-08T11:35:37;2.72;;;2.38;;
11171;SDS011;5642;50.830;12.082;2022-12-08T11:38:19;2.40;;;2.20;;
11171;SDS011;5642;50.830;12.082;2022-12-08T11:40:54;2.55;;;2.35;;
11171;SDS011;5642;50.830;12.082;2022-12-08T11:46:16;2.30;;;2.10;;
11171;SDS011;5642;50.830;12.082;2022-12-08T11:48:55;2.60;;;2.17;;
11171;SDS011;5642;50.830;12.082;2022-12-08T11:51:35;2.60;;;2.40;;
11171;SDS011;5642;50.830;12.082;2022-12-08T11:54:20;2.03;;;1.92;;
11171;SDS011;5642;50.830;12.082;2022-12-08T12:02:25;2.50;;;2.30;;
11171;SDS011;5642;50.830;12.082;2022-12-08T12:05:04;2.38;;;2.17;;
11171;SDS011;5642;50.830;12.082;2022-12-08T12:12:58;2.50;;;2.30;;
11171;SDS011;5642;50.830;12.082;2022-12-08T12:18:32;2.20;;;2.03;;
11171;SDS011;5642;50.830;12.082;2022-12-08T12:21:08;2.40;;;2.20;;
11171;SDS011;5642;50.830;12.082;2022-12-08T12:23:42;2.30;;;2.05;;
11171;SDS011;5642;50.830;12.082;2022-12-08T12:26:30;2.50;;;2.30;;
11171;SDS011;5642;50.830;12.082;2022-12-08T12:31:50;2.08;;;1.98;;
11171;SDS011;5642;50.830;12.082;2022-12-08T12:34:23;2.55;;;2.10;;
11171;SDS011;5642;50.830;12.082;2022-12-08T12:37:04;2.17;;;2.05;;
11171;SDS011;5642;50.830;12.082;2022-12-08T12:55:59;2.60;;;2.40;;
11171;SDS011;5642;50.830;12.082;2022-12-08T12:58:37;2.40;;;2.20;;
11171;SDS011;5642;50.830;12.082;2022-12-08T13:04:00;2.20;;;2.00;;
11171;SDS011;5642;50.830;12.082;2022-12-08T13:06:40;1.95;;;1.85;;
11171;SDS011;5642;50.830;12.082;2022-12-08T13:09:30;2.30;;;2.10;;
11171;SDS011;5642;50.830;12.082;2022-12-08T13:12:10;2.20;;;2.00;;
11171;SDS011;5642;50.830;12.082;2022-12-08T13:14:46;1.90;;;1.80;;
11171;SDS011;5642;50.830;12.082;2022-12-08T13:17:34;2.50;;;2.30;;
11171;SDS011;5642;50.830;12.082;2022-12-08T13:20:06;2.00;;;1.90;;
11171;SDS011;5642;50.830;12.082;2022-12-08T13:23:02;2.35;;;2.15;;
11171;SDS011;5642;50.830;12.082;2022-12-08T13:25:49;1.90;;;1.80;;
11171;SDS011;5642;50.830;12.082;2022-12-08T13:29:02;1.80;;;1.70;;
11171;SDS011;5642;50.830;12.082;2022-12-08T13:31:45;1.77;;;1.67;;
11171;SDS011;5642;50.830;12.082;2022-12-08T13:34:14;2.00;;;1.90;;
11171;SDS011;5642;50.830;12.082;2022-12-08T13:44:45;2.10;;;1.73;;
11171;SDS011;5642;50.830;12.082;2022-12-08T13:47:21;2.08;;;1.90;;
11171;SDS011;5642;50.830;12.082;2022-12-08T13:50:00;2.00;;;1.90;;
11171;SDS011;5642;50.830;12.082;2022-12-08T13:52:37;1.98;;;1.88;;
11171;SDS011;5642;50.830;12.082;2022-12-08T13:55:14;1.90;;;1.75;;
11171;SDS011;5642;50.830;12.082;2022-12-08T13:57:47;1.80;;;1.70;;
11171;SDS011;5642;50.830;12.082;2022-12-08T14:00:16;1.63;;;1.52;;
11171;SDS011;5642;50.830;12.082;2022-12-08T14:02:45;1.70;;;1.60;;
11171;SDS011;5642;50.830;12.082;2022-12-08T14:05:13;1.73;;;1.63;;
11171;SDS011;5642;50.830;12.082;2022-12-08T14:07:41;1.70;;;1.60;;
11171;SDS011;5642;50.830;12.082;2022-12-08T14:13:04;1.50;;;1.40;;
11171;SDS011;5642;50.830;12.082;2022-12-08T14:15:40;1.70;;;1.60;;
11171;SDS011;5642;50.830;12.082;2022-12-08T14:18:20;1.67;;;1.58;;
11171;SDS011;5642;50.830;12.082;2022-12-08T14:24:11;1.50;;;1.40;;
11171;SDS011;5642;50.830;12.082;2022-12-08T14:26:40;1.83;;;1.73;;
11171;SDS011;5642;50.830;12.082;2022-12-08T14:29:07;1.50;;;1.40;;
11171;SDS011;5642;50.830;12.082;2022-12-08T14:31:36;1.75;;;1.60;;
11171;SDS011;5642;50.830;12.082;2022-12-08T14:34:04;1.60;;;1.50;;
11171;SDS011;5642;50.830;12.082;2022-12-08T14:36:32;1.60;;;1.50;;
11171;SDS011;5642;50.830;12.082;2022-12-08T14:39:00;1.80;;;1.70;;
11171;SDS011;5642;50.830;12.082;2022-12-08T14:41:31;1.63;;;1.52;;
11171;SDS011;5642;50.830;12.082;2022-12-08T14:43:59;1.70;;;1.60;;
11171;SDS011;5642;50.830;12.082;2022-12-08T14:46:28;1.58;;;1.48;;
11171;SDS011;5642;50.830;12.082;2022-12-08T14:48:55;1.48;;;1.38;;
11171;SDS011;5642;50.830;12.082;2022-12-08T14:51:28;1.58;;;1.48;;
11171;SDS011;5642;50.830;12.082;2022-12-08T14:54:00;1.65;;;1.55;;
11171;SDS011;5642;50.830;12.082;2022-12-08T14:56:35;2.08;;;1.98;;
11171;SDS011;5642;50.830;12.082;2022-12-08T14:59:16;1.98;;;1.88;;
11171;SDS011;5642;50.830;12.082;2022-12-08T15:05:09;1.50;;;1.40;;
11171;SDS011;5642;50.830;12.082;2022-12-08T15:07:59;1.77;;;1.67;;
11171;SDS011;5642;50.830;12.082;2022-12-08T15:10:33;1.65;;;1.55;;
11171;SDS011;5642;50.830;12.082;2022-12-08T15:15:50;1.60;;;1.50;;
11171;SDS011;5642;50.830;12.082;2022-12-08T15:21:07;1.55;;;1.45;;
11171;SDS011;5642;50.830;12.082;2022-12-08T15:23:39;1.70;;;1.60;;
11171;SDS011;5642;50.830;12.082;2022-12-08T15:26:21;1.70;;;1.60;;
11171;SDS011;5642;50.830;12.082;2022-12-08T15:29:07;1.52;;;1.42;;
11171;SDS011;5642;50.830;12.082;2022-12-08T15:31:47;1.45;;;1.35;;
11171;SDS011;5642;50.830;12.082;2022-12-08T15:34:16;1.67;;;1.58;;
11171;SDS011;5642;50.830;12.082;2022-12-08T15:36:48;1.60;;;1.50;;
11171;SDS011;5642;50.830;12.082;2022-12-08T15:39:20;1.80;;;1.70;;
11171;SDS011;5642;50.830;12.082;2022-12-08T15:41:56;1.85;;;1.75;;
11171;SDS011;5642;50.830;12.082;2022-12-08T15:44:25;1.85;;;1.75;;
11171;SDS011;5642;50.830;12.082;2022-12-08T15:46:59;1.70;;;1.60;;
11171;SDS011;5642;50.830;12.082;2022-12-08T15:49:56;1.58;;;1.48;;
11171;SDS011;5642;50.830;12.082;2022-12-08T15:52:36;2.35;;;1.63;;
11171;SDS011;5642;50.830;12.082;2022-12-08T15:55:17;1.63;;;1.52;;
11171;SDS011;5642;50.830;12.082;2022-12-08T15:57:50;1.75;;;1.65;;
11171;SDS011;5642;50.830;12.082;2022-12-08T16:00:28;1.80;;;1.70;;
11171;SDS011;5642;50.830;12.082;2022-12-08T16:03:19;1.70;;;1.60;;
11171;SDS011;5642;50.830;12.082;2022-12-08T16:06:07;1.80;;;1.70;;
11171;SDS011;5642;50.830;12.082;2022-12-08T16:08:43;1.90;;;1.80;;
11171;SDS011;5642;50.830;12.082;2022-12-08T16:11:11;1.92;;;1.83;;
11171;SDS011;5642;50.830;12.082;2022-12-08T16:13:57;1.70;;;1.60;;
11171;SDS011;5642;50.830;12.082;2022-12-08T16:16:26;2.85;;;2.45;;
11171;SDS011;5642;50.830;12.082;2022-12-08T16:18:55;1.90;;;1.80;;
11171;SDS011;5642;50.830;12.082;2022-12-08T16:21:23;1.80;;;1.70;;
11171;SDS011;5642;50.830;12.082;2022-12-08T16:23:53;2.00;;;1.90;;
11171;SDS011;5642;50.830;12.082;2022-12-08T16:26:21;2.30;;;2.13;;
11171;SDS011;5642;50.830;12.082;2022-12-08T16:28:53;2.35;;;2.15;;
11171;SDS011;5642;50.830;12.082;2022-12-08T16:31:25;2.00;;;1.90;;
11171;SDS011;5642;50.830;12.082;2022-12-08T16:33:58;2.35;;;2.15;;
11171;SDS011;5642;50.830;12.082;2022-12-08T16:36:26;2.03;;;1.88;;
11171;SDS011;5642;50.830;12.082;2022-12-08T16:38:52;2.50;;;2.08;;
11171;SDS011;5642;50.830;12.082;2022-12-08T16:41:20;2.50;;;2.20;;
11171;SDS011;5642;50.830;12.082;2022-12-08T16:44:10;2.42;;;2.22;;
11171;SDS011;5642;50.830;12.082;2022-12-08T16:46:37;3.60;;;2.60;;
11171;SDS011;5642;50.830;12.082;2022-12-08T16:49:12;2.75;;;2.55;;
11171;SDS011;5642;50.830;12.082;2022-12-08T16:51:41;2.80;;;2.60;;
11171;SDS011;5642;50.830;12.082;2022-12-08T16:54:14;2.80;;;2.50;;
11171;SDS011;5642;50.830;12.082;2022-12-08T16:56:41;2.28;;;2.08;;
11171;SDS011;5642;50.830;12.082;2022-12-08T16:59:15;2.35;;;2.15;;
11171;SDS011;5642;50.830;12.082;2022-12-08T17:01:42;2.17;;;1.98;;
11171;SDS011;5642;50.830;12.082;2022-12-08T17:04:11;3.30;;;3.00;;
11171;SDS011;5642;50.830;12.082;2022-12-08T17:06:39;2.95;;;2.65;;
11171;SDS011;5642;50.830;12.082;2022-12-08T17:09:08;2.67;;;2.40;;
11171;SDS011;5642;50.830;12.082;2022-12-08T17:11:35;2.53;;;2.33;;
11171;SDS011;5642;50.830;12.082;2022-12-08T17:14:03;3.10;;;2.80;;
11171;SDS011;5642;50.830;12.082;2022-12-08T17:16:30;2.60;;;2.40;;
11171;SDS011;5642;50.830;12.082;2022-12-08T17:18:58;2.97;;;2.50;;
11171;SDS011;5642;50.830;12.082;2022-12-08T17:21:26;2.58;;;2.38;;
11171;SDS011;5642;50.830;12.082;2022-12-08T17:23:53;2.45;;;2.25;;